N.dadayli — TCCW7 — position and weather

sailwx.info

Track history (hours):
 
Tides and Currents Weather Stations Pressure Air Temp Water Temp Dewpoint Dewpoint Depression Visibility Wind Speed Wind Dir Waves Ship Positions

N.dadayli

Last reported at 2017-Aug-21 22:53 UTC. Time now 2017-Aug-22 20:42 UTC.
Position N 48°54' W 005°49'.

Length 101 m; draft 7.4 m.

Type: Cargo ship. MMSI: 271000768.

Date/timePositionNaut miles runAvg speedWind from/ knotsBaromVisibWave heightAir tempDewpointWater temp
2017-Aug-21 22:53N 48°54' W 005°49'1012.5
2017-Aug-21 22:07N 48°59' W 005°36'212.7
2017-Aug-21 21:56N 49°01' W 005°34'512.7
2017-Aug-21 21:30N 49°03' W 005°26'612.4
2017-Aug-21 21:00N 49°07' W 005°18'712.3
2017-Aug-21 20:28N 49°10' W 005°09'511.9
2017-Aug-21 20:00N 49°13' W 005°02'611.2
2017-Aug-21 19:30N 49°16' W 004°55'510.9
2017-Aug-21 19:00N 49°19' W 004°48'510.3
2017-Aug-21 18:31N 49°21' W 004°41'5 9.9
2017-Aug-21 18:00N 49°24' W 004°34'5 9.6
2017-Aug-21 17:29N 49°26' W 004°28'4 9.4
2017-Aug-21 17:00N 49°28' W 004°22'5 9.3
2017-Aug-21 16:31N 49°31' W 004°15'5 9.4
2017-Aug-21 16:00N 49°33' W 004°09'5 9.8
2017-Aug-21 15:31N 49°35' W 004°03'510.2
2017-Aug-21 15:01N 49°38' W 003°56'510.7
2017-Aug-21 14:30N 49°40' W 003°49'611.3
2017-Aug-21 14:01N 49°43' W 003°41'612.1
2017-Aug-21 13:31N 49°46' W 003°33'612.5
2017-Aug-21 13:01N 49°49' W 003°24'612.8
2017-Aug-21 12:31N 49°53' W 003°16'612.6
2017-Aug-21 12:01N 49°56' W 003°07'612.4
2017-Aug-21 11:31N 49°59' W 002°59'611.7
2017-Aug-21 11:00N 50°01' W 002°51'611.2
2017-Aug-21 10:30N 50°03' W 002°42'510.4
2017-Aug-21 09:59N 50°04' W 002°34'5 9.5
2017-Aug-21 09:31N 50°05' W 002°27'4 8.8
2017-Aug-21 09:00N 50°07' W 002°21'4 8.1
2017-Aug-21 08:30N 50°08' W 002°14'10 7.1
2017-Aug-21 07:09N 50°10' W 002°00'1 6.8
2017-Aug-21 07:00N 50°10' W 001°59'3 6.7
2017-Aug-21 06:30N 50°11' W 001°54'4 7.2
2017-Aug-21 06:00N 50°12' W 001°48'4 7.8
2017-Aug-21 05:30N 50°14' W 001°42'4 8.6
2017-Aug-21 05:00N 50°15' W 001°36'5 9.6
2017-Aug-21 04:30N 50°16' W 001°29'610.6
2017-Aug-21 03:59N 50°17' W 001°20'611.8
2017-Aug-21 03:29N 50°19' W 001°11'3112.9
2017-Aug-21 01:04N 50°28' W 000°24'112.4
2017-Aug-21 01:00N 50°28' W 000°23'612.4
2017-Aug-21 00:30N 50°30' W 000°14'612.1
2017-Aug-21 00:00N 50°31' W 000°05'611.6
2017-Aug-20 23:31N 50°32' E 000°04'611.3
2017-Aug-20 23:00N 50°34' E 000°13'511.0
2017-Aug-20 22:30N 50°35' E 000°21'510.5
2017-Aug-20 22:01N 50°37' E 000°29'510.2
2017-Aug-20 21:30N 50°39' E 000°37'510.2
2017-Aug-20 21:00N 50°42' E 000°43'510.1
2017-Aug-20 20:30N 50°45' E 000°49'1410.4
2017-Aug-20 19:10N 50°54' E 001°06'210.8
2017-Aug-20 19:00N 50°55' E 001°08'4 0.4
2017-Aug-20 09:36N 50°57' E 001°13'1 8.9
2017-Aug-20 09:30N 50°57' E 001°14'4 8.9
2017-Aug-20 09:00N 51°00' E 001°20'5 9.8
2017-Aug-20 08:31N 51°03' E 001°26'611.2
2017-Aug-20 08:00N 51°07' E 001°32'612.4
2017-Aug-20 07:30N 51°11' E 001°40'612.3
2017-Aug-20 07:01N 51°16' E 001°46'613.0
2017-Aug-20 06:30N 51°21' E 001°51'612.5
2017-Aug-20 06:00N 51°27' E 001°56'611.8
2017-Aug-20 05:31N 51°31' E 002°02'611.2
2017-Aug-20 05:01N 51°36' E 002°08'6110.3
2017-Aug-19 23:04N 52°03' E 003°36'0 0.0
2017-Aug-19 23:00N 52°03' E 003°36'0 0.0
2017-Aug-19 22:30N 52°03' E 003°36'0 0.0
2017-Aug-19 22:00N 52°03' E 003°36'0 0.0
2017-Aug-19 21:30N 52°03' E 003°36'2 5.0
2017-Aug-19 21:00N 52°03' E 003°40'5 9.0
2017-Aug-19 20:30N 52°03' E 003°47'5 9.1
2017-Aug-19 20:00N 52°03' E 003°54'3 7.0
2017-Aug-19 19:30N 52°01' E 003°59'5 9.5
2017-Aug-19 19:01N 51°59' E 004°06'510.8
2017-Aug-19 18:31N 51°56' E 004°13'4 8.1
2017-Aug-19 18:00N 51°53' E 004°18'1 1.9
2017-Aug-19 17:30N 51°53' E 004°16'0 0.0
2017-Aug-19 17:00N 51°53' E 004°16'0 0.0
2017-Aug-19 16:30N 51°53' E 004°16'0 0.0
2017-Aug-19 16:00N 51°53' E 004°16'0 0.0
2017-Aug-19 15:30N 51°53' E 004°16'0 0.0
2017-Aug-19 15:00N 51°53' E 004°16'0 0.0
2017-Aug-19 14:00N 51°53' E 004°16'0 0.0
2017-Aug-19 13:30N 51°53' E 004°16'0 0.0
2017-Aug-19 13:00N 51°53' E 004°16'0 0.0
2017-Aug-19 12:30N 51°53' E 004°16'0 0.0
2017-Aug-19 12:00N 51°53' E 004°16'0 0.0
2017-Aug-19 11:30N 51°53' E 004°16'0 0.0
2017-Aug-19 11:00N 51°53' E 004°16'0 0.0
2017-Aug-19 10:30N 51°53' E 004°16'0 0.0
2017-Aug-19 10:00N 51°53' E 004°16'0 0.0
2017-Aug-19 09:30N 51°53' E 004°16'0 0.0
2017-Aug-19 09:00N 51°53' E 004°16'0 0.0
2017-Aug-19 08:30N 51°53' E 004°16'0 0.0
2017-Aug-19 08:00N 51°53' E 004°16'0 0.0
2017-Aug-19 07:30N 51°53' E 004°16'0 0.0
2017-Aug-19 07:00N 51°53' E 004°16'0 0.0
2017-Aug-19 06:30N 51°53' E 004°16'0 0.0
2017-Aug-19 06:00N 51°53' E 004°16'0 0.0
2017-Aug-19 05:30N 51°53' E 004°16'0 0.0
2017-Aug-19 05:00N 51°53' E 004°16'0 0.0
2017-Aug-19 04:30N 51°53' E 004°16'0 0.0
2017-Aug-19 04:00N 51°53' E 004°16'0 0.0
2017-Aug-19 03:30N 51°53' E 004°16'0 0.0
2017-Aug-19 03:00N 51°53' E 004°16'0 0.0
2017-Aug-19 02:30N 51°53' E 004°16'0 0.0
2017-Aug-19 02:00N 51°53' E 004°16'0 0.0
2017-Aug-19 01:30N 51°53' E 004°16'0 0.0
2017-Aug-19 01:00N 51°53' E 004°16'0 0.0
2017-Aug-19 00:30N 51°53' E 004°16'0 0.0
2017-Aug-19 00:00N 51°53' E 004°16'0 0.0
2017-Aug-18 23:30N 51°53' E 004°16'0 0.0
2017-Aug-18 23:00N 51°53' E 004°16'0 0.0
2017-Aug-18 22:30N 51°53' E 004°16'0 0.0
2017-Aug-18 22:00N 51°53' E 004°16'0 0.0
2017-Aug-18 21:30N 51°53' E 004°16'0 0.0
2017-Aug-18 21:00N 51°53' E 004°16'0 0.0
2017-Aug-18 20:30N 51°53' E 004°16'0 0.0
2017-Aug-18 20:00N 51°53' E 004°16'0 0.0
2017-Aug-18 19:30N 51°53' E 004°16'0 0.0
2017-Aug-18 19:00N 51°53' E 004°16'0 0.0
2017-Aug-18 18:30N 51°53' E 004°16'0 0.0
2017-Aug-18 18:00N 51°53' E 004°16'0 0.0
2017-Aug-18 17:30N 51°53' E 004°16'0 0.0
2017-Aug-18 17:00N 51°53' E 004°16'0 0.0
2017-Aug-18 16:30N 51°53' E 004°16'0 0.0
2017-Aug-18 16:00N 51°53' E 004°16'0 0.0
2017-Aug-18 15:30N 51°53' E 004°16'0 0.0
2017-Aug-18 15:00N 51°53' E 004°16'0 0.0
2017-Aug-18 14:30N 51°53' E 004°16'0 0.4
2017-Aug-18 13:30N 51°53' E 004°17'1 1.6
2017-Aug-18 13:00N 51°54' E 004°18'0 0.0
2017-Aug-18 12:30N 51°54' E 004°18'0 0.0
2017-Aug-18 12:00N 51°54' E 004°18'0 0.0
2017-Aug-18 11:30N 51°54' E 004°18'0 0.0
2017-Aug-18 11:00N 51°54' E 004°18'0 0.0
2017-Aug-18 10:29N 51°54' E 004°18'0 0.0
2017-Aug-18 10:00N 51°54' E 004°18'0 0.0
2017-Aug-18 09:30N 51°54' E 004°18'0 0.0
2017-Aug-18 09:00N 51°54' E 004°18'0 0.0
2017-Aug-18 08:30N 51°54' E 004°18'0 0.0
2017-Aug-18 08:00N 51°54' E 004°18'0 0.0
2017-Aug-18 07:30N 51°54' E 004°18'0 0.0
2017-Aug-18 07:00N 51°54' E 004°18'0 0.0
2017-Aug-18 06:30N 51°54' E 004°18'0 0.0
2017-Aug-18 06:00N 51°54' E 004°18'0 0.0
2017-Aug-18 05:30N 51°54' E 004°18'0 0.0
2017-Aug-18 05:00N 51°54' E 004°18'0 0.0
2017-Aug-18 04:30N 51°54' E 004°18'0 0.0
2017-Aug-18 04:00N 51°54' E 004°18'0 0.0
2017-Aug-18 03:30N 51°54' E 004°18'0 0.0
2017-Aug-18 03:00N 51°54' E 004°18'0 0.0
2017-Aug-18 02:30N 51°54' E 004°18'0 0.0
2017-Aug-18 02:00N 51°54' E 004°18'0 0.0
2017-Aug-18 01:00N 51°54' E 004°18'0 0.0
2017-Aug-18 00:30N 51°54' E 004°18'0 0.0
2017-Aug-18 00:00N 51°54' E 004°18'0 0.0
2017-Aug-17 23:30N 51°54' E 004°18'0 0.0
2017-Aug-17 23:00N 51°54' E 004°18'0 0.0
2017-Aug-17 22:30N 51°54' E 004°18'0 0.0
2017-Aug-17 22:00N 51°54' E 004°18'0 0.0
2017-Aug-17 21:30N 51°54' E 004°18'0 0.0
2017-Aug-17 21:00N 51°54' E 004°18'0 0.0
2017-Aug-17 20:30N 51°54' E 004°18'0 0.0
2017-Aug-17 20:00N 51°54' E 004°18'0 0.0
2017-Aug-17 19:30N 51°54' E 004°18'0 0.0
2017-Aug-17 19:00N 51°54' E 004°18'1 1.4
2017-Aug-17 18:30N 51°54' E 004°17'4 7.2
2017-Aug-17 18:00N 51°56' E 004°13'5 9.5
2017-Aug-17 17:30N 51°59' E 004°06'5 9.6
2017-Aug-17 17:00N 52°00' E 003°59'510.6
2017-Aug-17 16:30N 51°59' E 003°50'3 6.3
2017-Aug-17 16:00N 51°57' E 003°47'0 0.1
2017-Aug-17 15:30N 51°57' E 003°47'0 0.0
2017-Aug-17 15:00N 51°57' E 003°47'0 0.0
2017-Aug-17 14:30N 51°57' E 003°47'0 0.0
2017-Aug-17 14:00N 51°57' E 003°47'0 0.1
2017-Aug-17 13:29N 51°57' E 003°47'0 0.1
2017-Aug-17 13:00N 51°57' E 003°47'0 0.0
2017-Aug-17 12:30N 51°57' E 003°47'0 0.0
2017-Aug-17 12:00N 51°57' E 003°47'0 0.0
2017-Aug-17 11:30N 51°57' E 003°47'0 0.0
2017-Aug-17 11:00N 51°57' E 003°47'0 0.0
2017-Aug-17 10:30N 51°57' E 003°47'0 0.0
2017-Aug-17 10:00N 51°57' E 003°47'0 0.0
2017-Aug-17 09:30N 51°57' E 003°47'0 0.0
2017-Aug-17 09:00N 51°57' E 003°47'0 0.0
2017-Aug-17 08:30N 51°57' E 003°47'0 0.0
2017-Aug-17 08:00N 51°57' E 003°47'0 0.0
2017-Aug-17 07:29N 51°57' E 003°47'0 0.1
2017-Aug-17 07:00N 51°57' E 003°47'0 0.0
2017-Aug-17 06:30N 51°57' E 003°47'0 0.0
2017-Aug-17 06:00N 51°57' E 003°47'0 0.0
2017-Aug-17 05:30N 51°57' E 003°47'0 0.1
2017-Aug-17 05:00N 51°57' E 003°47'0 0.1
2017-Aug-17 04:29N 51°57' E 003°47'0 0.0
2017-Aug-17 04:00N 51°57' E 003°47'0 0.0
2017-Aug-17 03:30N 51°57' E 003°47'0 0.0
2017-Aug-17 03:00N 51°57' E 003°47'0 0.0
2017-Aug-17 02:30N 51°57' E 003°47'0 0.0
2017-Aug-17 02:00N 51°57' E 003°47'0 0.0
2017-Aug-17 01:30N 51°57' E 003°47'0 0.0
2017-Aug-17 00:59N 51°57' E 003°47'0 0.0
2017-Aug-17 00:29N 51°57' E 003°47'0 0.0
2017-Aug-17 00:00N 51°57' E 003°47'0 0.0
2017-Aug-16 23:30N 51°57' E 003°47'0 0.0
2017-Aug-16 23:00N 51°57' E 003°47'0 0.0
2017-Aug-16 22:30N 51°57' E 003°47'0 0.0
2017-Aug-16 22:00N 51°57' E 003°47'0 0.0
2017-Aug-16 21:29N 51°57' E 003°47'0 0.0
2017-Aug-16 21:00N 51°57' E 003°47'0 0.0
2017-Aug-16 20:30N 51°57' E 003°47'0 0.0
2017-Aug-16 20:00N 51°57' E 003°47'0 0.0
2017-Aug-16 19:30N 51°57' E 003°47'0 0.0
2017-Aug-16 19:00N 51°57' E 003°47'0 0.0
2017-Aug-16 18:30N 51°57' E 003°47'0 0.1
2017-Aug-16 18:00N 51°57' E 003°47'0 0.1
2017-Aug-16 17:30N 51°57' E 003°47'0 0.0
2017-Aug-16 17:00N 51°57' E 003°47'0 0.0
2017-Aug-16 16:30N 51°57' E 003°47'0 0.0
2017-Aug-16 16:00N 51°57' E 003°47'0 0.0
2017-Aug-16 15:30N 51°57' E 003°47'0 0.0
2017-Aug-16 15:00N 51°57' E 003°47'0 0.0
2017-Aug-16 14:30N 51°57' E 003°47'0 0.0
2017-Aug-16 14:00N 51°57' E 003°47'0 0.0
2017-Aug-16 13:30N 51°57' E 003°47'0 0.2
2017-Aug-16 13:00N 51°57' E 003°47'0 0.1
2017-Aug-16 12:30N 51°57' E 003°47'0 0.0
2017-Aug-16 12:00N 51°57' E 003°47'0 0.0
2017-Aug-16 11:30N 51°57' E 003°47'0 0.0
2017-Aug-16 11:00N 51°57' E 003°47'0 0.0
2017-Aug-16 10:30N 51°57' E 003°47'0 0.0
2017-Aug-16 09:59N 51°57' E 003°47'0 0.0
2017-Aug-16 09:30N 51°57' E 003°47'0 0.0
2017-Aug-16 09:00N 51°57' E 003°47'0 0.0
2017-Aug-16 08:30N 51°57' E 003°47'0 0.0
2017-Aug-16 07:59N 51°57' E 003°47'0 0.0
2017-Aug-16 07:30N 51°57' E 003°47'0 0.0
2017-Aug-16 07:00N 51°57' E 003°47'0 0.0
2017-Aug-16 06:30N 51°57' E 003°47'0 0.0
2017-Aug-16 05:59N 51°57' E 003°47'0 0.1
2017-Aug-16 05:30N 51°57' E 003°47'0 0.1
2017-Aug-16 05:00N 51°57' E 003°47'0 0.1
2017-Aug-16 04:30N 51°57' E 003°47'0 0.1
2017-Aug-16 04:00N 51°57' E 003°47'0 0.0
2017-Aug-16 03:30N 51°57' E 003°47'0 0.0
2017-Aug-16 03:00N 51°57' E 003°47'0 0.0
2017-Aug-16 02:30N 51°57' E 003°47'0 0.0
2017-Aug-16 02:00N 51°57' E 003°47'0 0.0
2017-Aug-16 01:30N 51°57' E 003°47'0 0.0
2017-Aug-16 01:00N 51°57' E 003°47'0 0.0
2017-Aug-16 00:30N 51°57' E 003°47'0 0.0
2017-Aug-16 00:00N 51°57' E 003°47'0 0.1
2017-Aug-15 23:30N 51°57' E 003°47'0 0.1
2017-Aug-15 23:00N 51°57' E 003°47'0 0.0
2017-Aug-15 22:30N 51°57' E 003°47'0 0.0
2017-Aug-15 22:00N 51°57' E 003°47'0 0.0
2017-Aug-15 21:30N 51°57' E 003°47'0 0.0
2017-Aug-15 21:00N 51°57' E 003°47'0 0.0
2017-Aug-15 20:30N 51°57' E 003°47'0 0.0
2017-Aug-15 20:00N 51°57' E 003°47'0 0.0
2017-Aug-15 19:30N 51°57' E 003°47'0 0.0
2017-Aug-15 18:59N 51°57' E 003°47'0 0.0
2017-Aug-15 18:30N 51°57' E 003°47'0 0.0
2017-Aug-15 18:00N 51°57' E 003°47'0 0.1
2017-Aug-15 17:30N 51°57' E 003°47'0 0.1
2017-Aug-15 17:00N 51°57' E 003°47'0 0.2
2017-Aug-15 16:30N 51°57' E 003°47'0 0.0
2017-Aug-15 16:00N 51°57' E 003°47'0 0.0
2017-Aug-15 15:30N 51°57' E 003°47'0 0.0
2017-Aug-15 15:00N 51°57' E 003°47'0 0.0
2017-Aug-15 14:29N 51°57' E 003°47'0 0.0
2017-Aug-15 14:00N 51°57' E 003°47'0 0.0
2017-Aug-15 13:30N 51°57' E 003°47'0 0.0
2017-Aug-15 13:00N 51°57' E 003°47'0 0.0
2017-Aug-15 12:30N 51°57' E 003°47'0 0.0
2017-Aug-15 12:00N 51°57' E 003°47'0 0.0
2017-Aug-15 11:30N 51°57' E 003°47'0 0.1
2017-Aug-15 11:00N 51°57' E 003°47'0 0.1
2017-Aug-15 10:30N 51°57' E 003°47'0 0.0
2017-Aug-15 10:00N 51°57' E 003°47'0 0.1
2017-Aug-15 09:29N 51°57' E 003°47'0 0.0
2017-Aug-15 08:59N 51°57' E 003°47'0 0.0
2017-Aug-15 08:30N 51°57' E 003°47'0 0.1
2017-Aug-15 08:00N 51°57' E 003°47'0 0.0
2017-Aug-15 07:30N 51°57' E 003°47'0 0.0
2017-Aug-15 07:00N 51°57' E 003°47'0 0.0
2017-Aug-15 06:30N 51°57' E 003°47'0 0.0
2017-Aug-15 06:00N 51°57' E 003°47'0 0.0
2017-Aug-15 05:30N 51°57' E 003°47'0 0.0
2017-Aug-15 05:00N 51°57' E 003°47'0 0.1
2017-Aug-15 04:30N 51°57' E 003°47'0 0.1
2017-Aug-15 04:00N 51°57' E 003°47'0 0.1
2017-Aug-15 03:30N 51°57' E 003°47'0 0.0
2017-Aug-15 03:00N 51°57' E 003°47'0 0.0
2017-Aug-15 02:30N 51°57' E 003°47'0 0.0
2017-Aug-15 02:00N 51°57' E 003°47'0 0.0
2017-Aug-15 01:30N 51°57' E 003°47'0 0.0
2017-Aug-15 01:00N 51°57' E 003°47'0 0.0
2017-Aug-15 00:30N 51°57' E 003°47'0 0.0
2017-Aug-15 00:00N 51°57' E 003°47'0 0.0
2017-Aug-14 23:30N 51°57' E 003°47'0 0.0
2017-Aug-14 23:00N 51°57' E 003°47'0 0.0
2017-Aug-14 22:29N 51°57' E 003°47'0 0.1
2017-Aug-14 22:00N 51°57' E 003°47'0 0.1
2017-Aug-14 21:30N 51°57' E 003°47'0 0.1
2017-Aug-14 21:00N 51°57' E 003°47'0 0.0
2017-Aug-14 20:30N 51°57' E 003°47'0 0.0
2017-Aug-14 20:00N 51°57' E 003°47'0 0.0
2017-Aug-14 19:30N 51°57' E 003°47'0 0.0
2017-Aug-14 19:00N 51°57' E 003°47'0 0.0
2017-Aug-14 18:30N 51°57' E 003°47'0 0.0
2017-Aug-14 18:00N 51°57' E 003°47'0 0.0
2017-Aug-14 17:30N 51°57' E 003°47'0 0.0
2017-Aug-14 17:00N 51°57' E 003°47'0 0.1
2017-Aug-14 16:29N 51°57' E 003°47'0 0.1
2017-Aug-14 16:00N 51°57' E 003°47'0 0.0
2017-Aug-14 15:29N 51°57' E 003°47'0 0.0
2017-Aug-14 15:00N 51°57' E 003°47'0 0.0
2017-Aug-14 14:30N 51°57' E 003°47'0 0.0
2017-Aug-14 14:00N 51°57' E 003°47'0 0.0
2017-Aug-14 13:30N 51°57' E 003°47'0 0.0
2017-Aug-14 13:00N 51°57' E 003°47'0 0.0
2017-Aug-14 12:30N 51°57' E 003°47'0 0.0
2017-Aug-14 11:59N 51°57' E 003°47'0 0.0
2017-Aug-14 11:30N 51°57' E 003°47'0 0.0
2017-Aug-14 11:00N 51°57' E 003°47'0 0.0
2017-Aug-14 10:30N 51°57' E 003°47'0 0.0
2017-Aug-14 10:00N 51°57' E 003°47'0 0.1
2017-Aug-14 09:30N 51°57' E 003°47'0 0.1
2017-Aug-14 09:00N 51°57' E 003°47'0 0.1
2017-Aug-14 08:30N 51°57' E 003°47'0 0.0
2017-Aug-14 08:00N 51°57' E 003°47'0 0.0
2017-Aug-14 07:30N 51°57' E 003°47'0 0.0
2017-Aug-14 07:00N 51°57' E 003°47'0 0.0
2017-Aug-14 06:30N 51°57' E 003°47'0 0.0
2017-Aug-14 06:00N 51°57' E 003°47'0 0.0
2017-Aug-14 05:30N 51°57' E 003°47'0 0.0
2017-Aug-14 05:00N 51°57' E 003°47'0 0.0
2017-Aug-14 04:30N 51°57' E 003°47'0 0.2
2017-Aug-14 04:00N 51°57' E 003°47'0 0.1
2017-Aug-14 03:30N 51°57' E 003°47'0 0.0
2017-Aug-14 03:00N 51°57' E 003°47'0 0.0
2017-Aug-14 02:30N 51°57' E 003°47'0 0.0
2017-Aug-14 02:00N 51°57' E 003°47'0 0.0
2017-Aug-14 01:30N 51°57' E 003°47'0 0.0
2017-Aug-14 00:59N 51°57' E 003°47'0 0.0
2017-Aug-14 00:30N 51°57' E 003°47'0 0.0
2017-Aug-14 00:00N 51°57' E 003°47'0 0.0
2017-Aug-13 23:30N 51°57' E 003°47'0 0.0
2017-Aug-13 23:00N 51°57' E 003°47'0 0.0
2017-Aug-13 22:30N 51°57' E 003°47'0 0.0
2017-Aug-13 22:00N 51°57' E 003°47'0 0.1
2017-Aug-13 21:29N 51°57' E 003°47'0 0.1
2017-Aug-13 21:00N 51°57' E 003°47'0 0.0
2017-Aug-13 20:30N 51°57' E 003°47'0 0.0
2017-Aug-13 20:00N 51°57' E 003°47'0 0.0
2017-Aug-13 19:30N 51°57' E 003°47'0 0.0
2017-Aug-13 19:00N 51°57' E 003°47'0 0.0
2017-Aug-13 18:30N 51°57' E 003°47'0 0.0
2017-Aug-13 18:00N 51°57' E 003°47'0 0.0
2017-Aug-13 17:29N 51°57' E 003°47'0 0.0
2017-Aug-13 17:00N 51°57' E 003°47'0 0.0
2017-Aug-13 16:30N 51°57' E 003°47'0 0.2
2017-Aug-13 16:00N 51°57' E 003°47'0 0.1
2017-Aug-13 15:19N 51°57' E 003°47'0 0.0
2017-Aug-13 15:00N 51°57' E 003°47'0 0.0
2017-Aug-13 14:30N 51°57' E 003°47'0 0.0
2017-Aug-13 14:00N 51°57' E 003°47'0 0.0
2017-Aug-13 13:30N 51°57' E 003°47'0 0.0
2017-Aug-13 13:00N 51°57' E 003°47'0 0.0
2017-Aug-13 12:30N 51°57' E 003°47'0 0.0
2017-Aug-13 12:00N 51°57' E 003°47'0 0.0
2017-Aug-13 11:30N 51°57' E 003°47'0 0.0
2017-Aug-13 11:00N 51°57' E 003°47'0 0.0
2017-Aug-13 10:30N 51°57' E 003°47'0 0.0
2017-Aug-13 10:00N 51°57' E 003°47'0 0.0
2017-Aug-13 09:30N 51°57' E 003°47'0 0.0
2017-Aug-13 09:00N 51°57' E 003°47'0 0.1
2017-Aug-13 08:30N 51°57' E 003°47'0 0.0
2017-Aug-13 08:00N 51°57' E 003°47'0 0.0
2017-Aug-13 07:30N 51°57' E 003°47'0 0.0
2017-Aug-13 07:00N 51°57' E 003°47'0 0.0
2017-Aug-13 06:30N 51°57' E 003°47'0 0.0
2017-Aug-13 06:00N 51°57' E 003°47'0 0.0
2017-Aug-13 05:30N 51°57' E 003°47'0 0.0
2017-Aug-13 05:00N 51°57' E 003°47'0 0.0
2017-Aug-13 04:30N 51°57' E 003°47'0 0.1
2017-Aug-13 04:00N 51°57' E 003°47'0 0.0
2017-Aug-13 03:30N 51°57' E 003°47'0 0.1
2017-Aug-13 03:00N 51°57' E 003°47'0 0.1
2017-Aug-13 02:30N 51°57' E 003°47'0 0.1
2017-Aug-13 02:00N 51°57' E 003°47'0 0.0
2017-Aug-13 01:30N 51°57' E 003°47'0 0.0
2017-Aug-13 01:00N 51°57' E 003°47'0 0.0
2017-Aug-13 00:30N 51°57' E 003°47'0 0.0
2017-Aug-12 23:59N 51°57' E 003°47'0 0.0
2017-Aug-12 23:30N 51°57' E 003°47'0 0.0
2017-Aug-12 23:00N 51°57' E 003°47'0 0.0
2017-Aug-12 22:30N 51°57' E 003°47'0 0.0
2017-Aug-12 22:00N 51°57' E 003°47'0 0.0
2017-Aug-12 21:30N 51°57' E 003°47'0 0.1
2017-Aug-12 21:00N 51°57' E 003°47'0 0.1
2017-Aug-12 20:30N 51°57' E 003°47'0 0.1
2017-Aug-12 20:00N 51°57' E 003°47'0 0.0
2017-Aug-12 19:30N 51°57' E 003°47'0 0.0
2017-Aug-12 19:00N 51°57' E 003°47'0 0.0
2017-Aug-12 18:30N 51°57' E 003°47'0 0.0
2017-Aug-12 18:00N 51°57' E 003°47'0 0.0
2017-Aug-12 17:29N 51°57' E 003°47'0 0.0
2017-Aug-12 17:00N 51°57' E 003°47'0 0.1
2017-Aug-12 16:30N 51°57' E 003°47'0 0.0
2017-Aug-12 16:00N 51°57' E 003°47'0 0.0
2017-Aug-12 15:30N 51°57' E 003°47'0 0.1
2017-Aug-12 15:00N 51°57' E 003°47'0 0.0
2017-Aug-12 14:30N 51°57' E 003°47'0 0.1
2017-Aug-12 14:00N 51°57' E 003°47'0 0.2
2017-Aug-12 13:30N 51°57' E 003°47'0 0.0
2017-Aug-12 13:00N 51°57' E 003°47'0 0.0
2017-Aug-12 12:30N 51°57' E 003°47'0 0.0
2017-Aug-12 12:00N 51°57' E 003°47'0 0.0
2017-Aug-12 11:30N 51°57' E 003°47'0 0.0
2017-Aug-12 11:00N 51°57' E 003°47'0 0.1
2017-Aug-12 10:30N 51°57' E 003°47'0 0.1
2017-Aug-12 10:00N 51°57' E 003°47'0 0.1
2017-Aug-12 09:30N 51°57' E 003°47'0 0.1
2017-Aug-12 09:00N 51°57' E 003°47'0 0.0
2017-Aug-12 08:30N 51°57' E 003°47'0 0.1
2017-Aug-12 08:00N 51°57' E 003°47'0 0.0
2017-Aug-12 07:30N 51°57' E 003°47'0 0.0
2017-Aug-12 07:00N 51°57' E 003°47'0 0.0
2017-Aug-12 06:30N 51°57' E 003°47'0 0.0
2017-Aug-12 06:00N 51°57' E 003°47'0 0.0
2017-Aug-12 05:30N 51°57' E 003°47'0 0.0
2017-Aug-12 05:00N 51°57' E 003°47'0 0.0
2017-Aug-12 04:30N 51°57' E 003°47'0 0.0
2017-Aug-12 03:59N 51°57' E 003°47'0 0.0
2017-Aug-12 03:30N 51°57' E 003°47'0 0.0
2017-Aug-12 03:00N 51°57' E 003°47'0 0.1
2017-Aug-12 02:30N 51°57' E 003°47'0 0.0
2017-Aug-12 02:00N 51°57' E 003°47'0 0.1
2017-Aug-12 01:30N 51°57' E 003°47'0 0.2
2017-Aug-12 01:00N 51°57' E 003°47'0 0.0
2017-Aug-12 00:30N 51°57' E 003°47'0 0.1
2017-Aug-12 00:00N 51°57' E 003°47'0 0.1
2017-Aug-11 23:30N 51°57' E 003°47'0 0.1
2017-Aug-11 23:00N 51°57' E 003°47'  
Track history (hours):
 
Tides and Currents Weather Stations Pressure Air Temp Water Temp Dewpoint Dewpoint Depression Visibility Wind Speed Wind Dir Waves Ship Positions

N.dadayli

Last reported at 2017-Aug-21 22:53 UTC. Time now 2017-Aug-22 20:42 UTC.
Position N 48°54' W 005°49'.

Length 101 m; draft 7.4 m.

Type: Cargo ship. MMSI: 271000768.

Date/timePositionNaut miles runAvg speedWind from/ knotsBaromVisibWave heightAir tempDewpointWater temp
2017-Aug-21 22:53N 48°54' W 005°49'1012.5
2017-Aug-21 22:07N 48°59' W 005°36'212.7
2017-Aug-21 21:56N 49°01' W 005°34'512.7
2017-Aug-21 21:30N 49°03' W 005°26'612.4
2017-Aug-21 21:00N 49°07' W 005°18'712.3
2017-Aug-21 20:28N 49°10' W 005°09'511.9
2017-Aug-21 20:00N 49°13' W 005°02'611.2
2017-Aug-21 19:30N 49°16' W 004°55'510.9
2017-Aug-21 19:00N 49°19' W 004°48'510.3
2017-Aug-21 18:31N 49°21' W 004°41'5 9.9
2017-Aug-21 18:00N 49°24' W 004°34'5 9.6
2017-Aug-21 17:29N 49°26' W 004°28'4 9.4
2017-Aug-21 17:00N 49°28' W 004°22'5 9.3
2017-Aug-21 16:31N 49°31' W 004°15'5 9.4
2017-Aug-21 16:00N 49°33' W 004°09'5 9.8
2017-Aug-21 15:31N 49°35' W 004°03'510.2
2017-Aug-21 15:01N 49°38' W 003°56'510.7
2017-Aug-21 14:30N 49°40' W 003°49'611.3
2017-Aug-21 14:01N 49°43' W 003°41'612.1
2017-Aug-21 13:31N 49°46' W 003°33'612.5
2017-Aug-21 13:01N 49°49' W 003°24'612.8
2017-Aug-21 12:31N 49°53' W 003°16'612.6
2017-Aug-21 12:01N 49°56' W 003°07'612.4
2017-Aug-21 11:31N 49°59' W 002°59'611.7
2017-Aug-21 11:00N 50°01' W 002°51'611.2
2017-Aug-21 10:30N 50°03' W 002°42'510.4
2017-Aug-21 09:59N 50°04' W 002°34'5 9.5
2017-Aug-21 09:31N 50°05' W 002°27'4 8.8
2017-Aug-21 09:00N 50°07' W 002°21'4 8.1
2017-Aug-21 08:30N 50°08' W 002°14'10 7.1
2017-Aug-21 07:09N 50°10' W 002°00'1 6.8
2017-Aug-21 07:00N 50°10' W 001°59'3 6.7
2017-Aug-21 06:30N 50°11' W 001°54'4 7.2
2017-Aug-21 06:00N 50°12' W 001°48'4 7.8
2017-Aug-21 05:30N 50°14' W 001°42'4 8.6
2017-Aug-21 05:00N 50°15' W 001°36'5 9.6
2017-Aug-21 04:30N 50°16' W 001°29'610.6
2017-Aug-21 03:59N 50°17' W 001°20'611.8
2017-Aug-21 03:29N 50°19' W 001°11'3112.9
2017-Aug-21 01:04N 50°28' W 000°24'112.4
2017-Aug-21 01:00N 50°28' W 000°23'612.4
2017-Aug-21 00:30N 50°30' W 000°14'612.1
2017-Aug-21 00:00N 50°31' W 000°05'611.6
2017-Aug-20 23:31N 50°32' E 000°04'611.3
2017-Aug-20 23:00N 50°34' E 000°13'511.0
2017-Aug-20 22:30N 50°35' E 000°21'510.5
2017-Aug-20 22:01N 50°37' E 000°29'510.2
2017-Aug-20 21:30N 50°39' E 000°37'510.2
2017-Aug-20 21:00N 50°42' E 000°43'510.1
2017-Aug-20 20:30N 50°45' E 000°49'1410.4
2017-Aug-20 19:10N 50°54' E 001°06'210.8
2017-Aug-20 19:00N 50°55' E 001°08'4 0.4
2017-Aug-20 09:36N 50°57' E 001°13'1 8.9
2017-Aug-20 09:30N 50°57' E 001°14'4 8.9
2017-Aug-20 09:00N 51°00' E 001°20'5 9.8
2017-Aug-20 08:31N 51°03' E 001°26'611.2
2017-Aug-20 08:00N 51°07' E 001°32'612.4
2017-Aug-20 07:30N 51°11' E 001°40'612.3
2017-Aug-20 07:01N 51°16' E 001°46'613.0
2017-Aug-20 06:30N 51°21' E 001°51'612.5
2017-Aug-20 06:00N 51°27' E 001°56'611.8
2017-Aug-20 05:31N 51°31' E 002°02'611.2
2017-Aug-20 05:01N 51°36' E 002°08'6110.3
2017-Aug-19 23:04N 52°03' E 003°36'0 0.0
2017-Aug-19 23:00N 52°03' E 003°36'0 0.0
2017-Aug-19 22:30N 52°03' E 003°36'0 0.0
2017-Aug-19 22:00N 52°03' E 003°36'0 0.0
2017-Aug-19 21:30N 52°03' E 003°36'2 5.0
2017-Aug-19 21:00N 52°03' E 003°40'5 9.0
2017-Aug-19 20:30N 52°03' E 003°47'5 9.1
2017-Aug-19 20:00N 52°03' E 003°54'3 7.0
2017-Aug-19 19:30N 52°01' E 003°59'5 9.5
2017-Aug-19 19:01N 51°59' E 004°06'510.8
2017-Aug-19 18:31N 51°56' E 004°13'4 8.1
2017-Aug-19 18:00N 51°53' E 004°18'1 1.9
2017-Aug-19 17:30N 51°53' E 004°16'0 0.0
2017-Aug-19 17:00N 51°53' E 004°16'0 0.0
2017-Aug-19 16:30N 51°53' E 004°16'0 0.0
2017-Aug-19 16:00N 51°53' E 004°16'0 0.0
2017-Aug-19 15:30N 51°53' E 004°16'0 0.0
2017-Aug-19 15:00N 51°53' E 004°16'0 0.0
2017-Aug-19 14:00N 51°53' E 004°16'0 0.0
2017-Aug-19 13:30N 51°53' E 004°16'0 0.0
2017-Aug-19 13:00N 51°53' E 004°16'0 0.0
2017-Aug-19 12:30N 51°53' E 004°16'0 0.0
2017-Aug-19 12:00N 51°53' E 004°16'0 0.0
2017-Aug-19 11:30N 51°53' E 004°16'0 0.0
2017-Aug-19 11:00N 51°53' E 004°16'0 0.0
2017-Aug-19 10:30N 51°53' E 004°16'0 0.0
2017-Aug-19 10:00N 51°53' E 004°16'0 0.0
2017-Aug-19 09:30N 51°53' E 004°16'0 0.0
2017-Aug-19 09:00N 51°53' E 004°16'0 0.0
2017-Aug-19 08:30N 51°53' E 004°16'0 0.0
2017-Aug-19 08:00N 51°53' E 004°16'0 0.0
2017-Aug-19 07:30N 51°53' E 004°16'0 0.0
2017-Aug-19 07:00N 51°53' E 004°16'0 0.0
2017-Aug-19 06:30N 51°53' E 004°16'0 0.0
2017-Aug-19 06:00N 51°53' E 004°16'0 0.0
2017-Aug-19 05:30N 51°53' E 004°16'0 0.0
2017-Aug-19 05:00N 51°53' E 004°16'0 0.0
2017-Aug-19 04:30N 51°53' E 004°16'0 0.0
2017-Aug-19 04:00N 51°53' E 004°16'0 0.0
2017-Aug-19 03:30N 51°53' E 004°16'0 0.0
2017-Aug-19 03:00N 51°53' E 004°16'0 0.0
2017-Aug-19 02:30N 51°53' E 004°16'0 0.0
2017-Aug-19 02:00N 51°53' E 004°16'0 0.0
2017-Aug-19 01:30N 51°53' E 004°16'0 0.0
2017-Aug-19 01:00N 51°53' E 004°16'0 0.0
2017-Aug-19 00:30N 51°53' E 004°16'0 0.0
2017-Aug-19 00:00N 51°53' E 004°16'0 0.0
2017-Aug-18 23:30N 51°53' E 004°16'0 0.0
2017-Aug-18 23:00N 51°53' E 004°16'0 0.0
2017-Aug-18 22:30N 51°53' E 004°16'0 0.0
2017-Aug-18 22:00N 51°53' E 004°16'0 0.0
2017-Aug-18 21:30N 51°53' E 004°16'0 0.0
2017-Aug-18 21:00N 51°53' E 004°16'0 0.0
2017-Aug-18 20:30N 51°53' E 004°16'0 0.0
2017-Aug-18 20:00N 51°53' E 004°16'0 0.0
2017-Aug-18 19:30N 51°53' E 004°16'0 0.0
2017-Aug-18 19:00N 51°53' E 004°16'0 0.0
2017-Aug-18 18:30N 51°53' E 004°16'0 0.0
2017-Aug-18 18:00N 51°53' E 004°16'0 0.0
2017-Aug-18 17:30N 51°53' E 004°16'0 0.0
2017-Aug-18 17:00N 51°53' E 004°16'0 0.0
2017-Aug-18 16:30N 51°53' E 004°16'0 0.0
2017-Aug-18 16:00N 51°53' E 004°16'0 0.0
2017-Aug-18 15:30N 51°53' E 004°16'0 0.0
2017-Aug-18 15:00N 51°53' E 004°16'0 0.0
2017-Aug-18 14:30N 51°53' E 004°16'0 0.4
2017-Aug-18 13:30N 51°53' E 004°17'1 1.6
2017-Aug-18 13:00N 51°54' E 004°18'0 0.0
2017-Aug-18 12:30N 51°54' E 004°18'0 0.0
2017-Aug-18 12:00N 51°54' E 004°18'0 0.0
2017-Aug-18 11:30N 51°54' E 004°18'0 0.0
2017-Aug-18 11:00N 51°54' E 004°18'0 0.0
2017-Aug-18 10:29N 51°54' E 004°18'0 0.0
2017-Aug-18 10:00N 51°54' E 004°18'0 0.0
2017-Aug-18 09:30N 51°54' E 004°18'0 0.0
2017-Aug-18 09:00N 51°54' E 004°18'0 0.0
2017-Aug-18 08:30N 51°54' E 004°18'0 0.0
2017-Aug-18 08:00N 51°54' E 004°18'0 0.0
2017-Aug-18 07:30N 51°54' E 004°18'0 0.0
2017-Aug-18 07:00N 51°54' E 004°18'0 0.0
2017-Aug-18 06:30N 51°54' E 004°18'0 0.0
2017-Aug-18 06:00N 51°54' E 004°18'0 0.0
2017-Aug-18 05:30N 51°54' E 004°18'0 0.0
2017-Aug-18 05:00N 51°54' E 004°18'0 0.0
2017-Aug-18 04:30N 51°54' E 004°18'0 0.0
2017-Aug-18 04:00N 51°54' E 004°18'0 0.0
2017-Aug-18 03:30N 51°54' E 004°18'0 0.0
2017-Aug-18 03:00N 51°54' E 004°18'0 0.0
2017-Aug-18 02:30N 51°54' E 004°18'0 0.0
2017-Aug-18 02:00N 51°54' E 004°18'0 0.0
2017-Aug-18 01:00N 51°54' E 004°18'0 0.0
2017-Aug-18 00:30N 51°54' E 004°18'0 0.0
2017-Aug-18 00:00N 51°54' E 004°18'0 0.0
2017-Aug-17 23:30N 51°54' E 004°18'0 0.0
2017-Aug-17 23:00N 51°54' E 004°18'0 0.0
2017-Aug-17 22:30N 51°54' E 004°18'0 0.0
2017-Aug-17 22:00N 51°54' E 004°18'0 0.0
2017-Aug-17 21:30N 51°54' E 004°18'0 0.0
2017-Aug-17 21:00N 51°54' E 004°18'0 0.0
2017-Aug-17 20:30N 51°54' E 004°18'0 0.0
2017-Aug-17 20:00N 51°54' E 004°18'0 0.0
2017-Aug-17 19:30N 51°54' E 004°18'0 0.0
2017-Aug-17 19:00N 51°54' E 004°18'1 1.4
2017-Aug-17 18:30N 51°54' E 004°17'4 7.2
2017-Aug-17 18:00N 51°56' E 004°13'5 9.5
2017-Aug-17 17:30N 51°59' E 004°06'5 9.6
2017-Aug-17 17:00N 52°00' E 003°59'510.6
2017-Aug-17 16:30N 51°59' E 003°50'3 6.3
2017-Aug-17 16:00N 51°57' E 003°47'0 0.1
2017-Aug-17 15:30N 51°57' E 003°47'0 0.0
2017-Aug-17 15:00N 51°57' E 003°47'0 0.0
2017-Aug-17 14:30N 51°57' E 003°47'0 0.0
2017-Aug-17 14:00N 51°57' E 003°47'0 0.1
2017-Aug-17 13:29N 51°57' E 003°47'0 0.1
2017-Aug-17 13:00N 51°57' E 003°47'0 0.0
2017-Aug-17 12:30N 51°57' E 003°47'0 0.0
2017-Aug-17 12:00N 51°57' E 003°47'0 0.0
2017-Aug-17 11:30N 51°57' E 003°47'0 0.0
2017-Aug-17 11:00N 51°57' E 003°47'0 0.0
2017-Aug-17 10:30N 51°57' E 003°47'0 0.0
2017-Aug-17 10:00N 51°57' E 003°47'0 0.0
2017-Aug-17 09:30N 51°57' E 003°47'0 0.0
2017-Aug-17 09:00N 51°57' E 003°47'0 0.0
2017-Aug-17 08:30N 51°57' E 003°47'0 0.0
2017-Aug-17 08:00N 51°57' E 003°47'0 0.0
2017-Aug-17 07:29N 51°57' E 003°47'0 0.1
2017-Aug-17 07:00N 51°57' E 003°47'0 0.0
2017-Aug-17 06:30N 51°57' E 003°47'0 0.0
2017-Aug-17 06:00N 51°57' E 003°47'0 0.0
2017-Aug-17 05:30N 51°57' E 003°47'0 0.1
2017-Aug-17 05:00N 51°57' E 003°47'0 0.1
2017-Aug-17 04:29N 51°57' E 003°47'0 0.0
2017-Aug-17 04:00N 51°57' E 003°47'0 0.0
2017-Aug-17 03:30N 51°57' E 003°47'0 0.0
2017-Aug-17 03:00N 51°57' E 003°47'0 0.0
2017-Aug-17 02:30N 51°57' E 003°47'0 0.0
2017-Aug-17 02:00N 51°57' E 003°47'0 0.0
2017-Aug-17 01:30N 51°57' E 003°47'0 0.0
2017-Aug-17 00:59N 51°57' E 003°47'0 0.0
2017-Aug-17 00:29N 51°57' E 003°47'0 0.0
2017-Aug-17 00:00N 51°57' E 003°47'0 0.0
2017-Aug-16 23:30N 51°57' E 003°47'0 0.0
2017-Aug-16 23:00N 51°57' E 003°47'0 0.0
2017-Aug-16 22:30N 51°57' E 003°47'0 0.0
2017-Aug-16 22:00N 51°57' E 003°47'0 0.0
2017-Aug-16 21:29N 51°57' E 003°47'0 0.0
2017-Aug-16 21:00N 51°57' E 003°47'0 0.0
2017-Aug-16 20:30N 51°57' E 003°47'0 0.0
2017-Aug-16 20:00N 51°57' E 003°47'0 0.0
2017-Aug-16 19:30N 51°57' E 003°47'0 0.0
2017-Aug-16 19:00N 51°57' E 003°47'0 0.0
2017-Aug-16 18:30N 51°57' E 003°47'0 0.1
2017-Aug-16 18:00N 51°57' E 003°47'0 0.1
2017-Aug-16 17:30N 51°57' E 003°47'0 0.0
2017-Aug-16 17:00N 51°57' E 003°47'0 0.0
2017-Aug-16 16:30N 51°57' E 003°47'0 0.0
2017-Aug-16 16:00N 51°57' E 003°47'0 0.0
2017-Aug-16 15:30N 51°57' E 003°47'0 0.0
2017-Aug-16 15:00N 51°57' E 003°47'0 0.0
2017-Aug-16 14:30N 51°57' E 003°47'0 0.0
2017-Aug-16 14:00N 51°57' E 003°47'0 0.0
2017-Aug-16 13:30N 51°57' E 003°47'0 0.2
2017-Aug-16 13:00N 51°57' E 003°47'0 0.1
2017-Aug-16 12:30N 51°57' E 003°47'0 0.0
2017-Aug-16 12:00N 51°57' E 003°47'0 0.0
2017-Aug-16 11:30N 51°57' E 003°47'0 0.0
2017-Aug-16 11:00N 51°57' E 003°47'0 0.0
2017-Aug-16 10:30N 51°57' E 003°47'0 0.0
2017-Aug-16 09:59N 51°57' E 003°47'0 0.0
2017-Aug-16 09:30N 51°57' E 003°47'0 0.0
2017-Aug-16 09:00N 51°57' E 003°47'0 0.0
2017-Aug-16 08:30N 51°57' E 003°47'0 0.0
2017-Aug-16 07:59N 51°57' E 003°47'0 0.0
2017-Aug-16 07:30N 51°57' E 003°47'0 0.0
2017-Aug-16 07:00N 51°57' E 003°47'0 0.0
2017-Aug-16 06:30N 51°57' E 003°47'0 0.0
2017-Aug-16 05:59N 51°57' E 003°47'0 0.1
2017-Aug-16 05:30N 51°57' E 003°47'0 0.1
2017-Aug-16 05:00N 51°57' E 003°47'0 0.1
2017-Aug-16 04:30N 51°57' E 003°47'0 0.1
2017-Aug-16 04:00N 51°57' E 003°47'0 0.0
2017-Aug-16 03:30N 51°57' E 003°47'0 0.0
2017-Aug-16 03:00N 51°57' E 003°47'0 0.0
2017-Aug-16 02:30N 51°57' E 003°47'0 0.0
2017-Aug-16 02:00N 51°57' E 003°47'0 0.0
2017-Aug-16 01:30N 51°57' E 003°47'0 0.0
2017-Aug-16 01:00N 51°57' E 003°47'0 0.0
2017-Aug-16 00:30N 51°57' E 003°47'0 0.0
2017-Aug-16 00:00N 51°57' E 003°47'0 0.1
2017-Aug-15 23:30N 51°57' E 003°47'0 0.1
2017-Aug-15 23:00N 51°57' E 003°47'0 0.0
2017-Aug-15 22:30N 51°57' E 003°47'0 0.0
2017-Aug-15 22:00N 51°57' E 003°47'0 0.0
2017-Aug-15 21:30N 51°57' E 003°47'0 0.0
2017-Aug-15 21:00N 51°57' E 003°47'0 0.0
2017-Aug-15 20:30N 51°57' E 003°47'0 0.0
2017-Aug-15 20:00N 51°57' E 003°47'0 0.0
2017-Aug-15 19:30N 51°57' E 003°47'0 0.0
2017-Aug-15 18:59N 51°57' E 003°47'0 0.0
2017-Aug-15 18:30N 51°57' E 003°47'0 0.0
2017-Aug-15 18:00N 51°57' E 003°47'0 0.1
2017-Aug-15 17:30N 51°57' E 003°47'0 0.1
2017-Aug-15 17:00N 51°57' E 003°47'0 0.2
2017-Aug-15 16:30N 51°57' E 003°47'0 0.0
2017-Aug-15 16:00N 51°57' E 003°47'0 0.0
2017-Aug-15 15:30N 51°57' E 003°47'0 0.0
2017-Aug-15 15:00N 51°57' E 003°47'0 0.0
2017-Aug-15 14:29N 51°57' E 003°47'0 0.0
2017-Aug-15 14:00N 51°57' E 003°47'0 0.0
2017-Aug-15 13:30N 51°57' E 003°47'0 0.0
2017-Aug-15 13:00N 51°57' E 003°47'0 0.0
2017-Aug-15 12:30N 51°57' E 003°47'0 0.0
2017-Aug-15 12:00N 51°57' E 003°47'0 0.0
2017-Aug-15 11:30N 51°57' E 003°47'0 0.1
2017-Aug-15 11:00N 51°57' E 003°47'0 0.1
2017-Aug-15 10:30N 51°57' E 003°47'0 0.0
2017-Aug-15 10:00N 51°57' E 003°47'0 0.1
2017-Aug-15 09:29N 51°57' E 003°47'0 0.0
2017-Aug-15 08:59N 51°57' E 003°47'0 0.0
2017-Aug-15 08:30N 51°57' E 003°47'0 0.1
2017-Aug-15 08:00N 51°57' E 003°47'0 0.0
2017-Aug-15 07:30N 51°57' E 003°47'0 0.0
2017-Aug-15 07:00N 51°57' E 003°47'0 0.0
2017-Aug-15 06:30N 51°57' E 003°47'0 0.0
2017-Aug-15 06:00N 51°57' E 003°47'0 0.0
2017-Aug-15 05:30N 51°57' E 003°47'0 0.0
2017-Aug-15 05:00N 51°57' E 003°47'0 0.1
2017-Aug-15 04:30N 51°57' E 003°47'0 0.1
2017-Aug-15 04:00N 51°57' E 003°47'0 0.1
2017-Aug-15 03:30N 51°57' E 003°47'0 0.0
2017-Aug-15 03:00N 51°57' E 003°47'0 0.0
2017-Aug-15 02:30N 51°57' E 003°47'0 0.0
2017-Aug-15 02:00N 51°57' E 003°47'0 0.0
2017-Aug-15 01:30N 51°57' E 003°47'0 0.0
2017-Aug-15 01:00N 51°57' E 003°47'0 0.0
2017-Aug-15 00:30N 51°57' E 003°47'0 0.0
2017-Aug-15 00:00N 51°57' E 003°47'0 0.0
2017-Aug-14 23:30N 51°57' E 003°47'0 0.0
2017-Aug-14 23:00N 51°57' E 003°47'0 0.0
2017-Aug-14 22:29N 51°57' E 003°47'0 0.1
2017-Aug-14 22:00N 51°57' E 003°47'0 0.1
2017-Aug-14 21:30N 51°57' E 003°47'0 0.1
2017-Aug-14 21:00N 51°57' E 003°47'0 0.0
2017-Aug-14 20:30N 51°57' E 003°47'0 0.0
2017-Aug-14 20:00N 51°57' E 003°47'0 0.0
2017-Aug-14 19:30N 51°57' E 003°47'0 0.0
2017-Aug-14 19:00N 51°57' E 003°47'0 0.0
2017-Aug-14 18:30N 51°57' E 003°47'0 0.0
2017-Aug-14 18:00N 51°57' E 003°47'0 0.0
2017-Aug-14 17:30N 51°57' E 003°47'0 0.0
2017-Aug-14 17:00N 51°57' E 003°47'0 0.1
2017-Aug-14 16:29N 51°57' E 003°47'0 0.1
2017-Aug-14 16:00N 51°57' E 003°47'0 0.0
2017-Aug-14 15:29N 51°57' E 003°47'0 0.0
2017-Aug-14 15:00N 51°57' E 003°47'0 0.0
2017-Aug-14 14:30N 51°57' E 003°47'0 0.0
2017-Aug-14 14:00N 51°57' E 003°47'0 0.0
2017-Aug-14 13:30N 51°57' E 003°47'0 0.0
2017-Aug-14 13:00N 51°57' E 003°47'0 0.0
2017-Aug-14 12:30N 51°57' E 003°47'0 0.0
2017-Aug-14 11:59N 51°57' E 003°47'0 0.0
2017-Aug-14 11:30N 51°57' E 003°47'0 0.0
2017-Aug-14 11:00N 51°57' E 003°47'0 0.0
2017-Aug-14 10:30N 51°57' E 003°47'0 0.0
2017-Aug-14 10:00N 51°57' E 003°47'0 0.1
2017-Aug-14 09:30N 51°57' E 003°47'0 0.1
2017-Aug-14 09:00N 51°57' E 003°47'0 0.1
2017-Aug-14 08:30N 51°57' E 003°47'0 0.0
2017-Aug-14 08:00N 51°57' E 003°47'0 0.0
2017-Aug-14 07:30N 51°57' E 003°47'0 0.0
2017-Aug-14 07:00N 51°57' E 003°47'0 0.0
2017-Aug-14 06:30N 51°57' E 003°47'0 0.0
2017-Aug-14 06:00N 51°57' E 003°47'0 0.0
2017-Aug-14 05:30N 51°57' E 003°47'0 0.0
2017-Aug-14 05:00N 51°57' E 003°47'0 0.0
2017-Aug-14 04:30N 51°57' E 003°47'0 0.2
2017-Aug-14 04:00N 51°57' E 003°47'0 0.1
2017-Aug-14 03:30N 51°57' E 003°47'0 0.0
2017-Aug-14 03:00N 51°57' E 003°47'0 0.0
2017-Aug-14 02:30N 51°57' E 003°47'0 0.0
2017-Aug-14 02:00N 51°57' E 003°47'0 0.0
2017-Aug-14 01:30N 51°57' E 003°47'0 0.0
2017-Aug-14 00:59N 51°57' E 003°47'0 0.0
2017-Aug-14 00:30N 51°57' E 003°47'0 0.0
2017-Aug-14 00:00N 51°57' E 003°47'0 0.0
2017-Aug-13 23:30N 51°57' E 003°47'0 0.0
2017-Aug-13 23:00N 51°57' E 003°47'0 0.0
2017-Aug-13 22:30N 51°57' E 003°47'0 0.0
2017-Aug-13 22:00N 51°57' E 003°47'0 0.1
2017-Aug-13 21:29N 51°57' E 003°47'0 0.1
2017-Aug-13 21:00N 51°57' E 003°47'0 0.0
2017-Aug-13 20:30N 51°57' E 003°47'0 0.0
2017-Aug-13 20:00N 51°57' E 003°47'0 0.0
2017-Aug-13 19:30N 51°57' E 003°47'0 0.0
2017-Aug-13 19:00N 51°57' E 003°47'0 0.0
2017-Aug-13 18:30N 51°57' E 003°47'0 0.0
2017-Aug-13 18:00N 51°57' E 003°47'0 0.0
2017-Aug-13 17:29N 51°57' E 003°47'0 0.0
2017-Aug-13 17:00N 51°57' E 003°47'0 0.0
2017-Aug-13 16:30N 51°57' E 003°47'0 0.2
2017-Aug-13 16:00N 51°57' E 003°47'0 0.1
2017-Aug-13 15:19N 51°57' E 003°47'0 0.0
2017-Aug-13 15:00N 51°57' E 003°47'0 0.0
2017-Aug-13 14:30N 51°57' E 003°47'0 0.0
2017-Aug-13 14:00N 51°57' E 003°47'0 0.0
2017-Aug-13 13:30N 51°57' E 003°47'0 0.0
2017-Aug-13 13:00N 51°57' E 003°47'0 0.0
2017-Aug-13 12:30N 51°57' E 003°47'0 0.0
2017-Aug-13 12:00N 51°57' E 003°47'0 0.0
2017-Aug-13 11:30N 51°57' E 003°47'0 0.0
2017-Aug-13 11:00N 51°57' E 003°47'0 0.0
2017-Aug-13 10:30N 51°57' E 003°47'0 0.0
2017-Aug-13 10:00N 51°57' E 003°47'0 0.0
2017-Aug-13 09:30N 51°57' E 003°47'0 0.0
2017-Aug-13 09:00N 51°57' E 003°47'0 0.1
2017-Aug-13 08:30N 51°57' E 003°47'0 0.0
2017-Aug-13 08:00N 51°57' E 003°47'0 0.0
2017-Aug-13 07:30N 51°57' E 003°47'0 0.0
2017-Aug-13 07:00N 51°57' E 003°47'0 0.0
2017-Aug-13 06:30N 51°57' E 003°47'0 0.0
2017-Aug-13 06:00N 51°57' E 003°47'0 0.0
2017-Aug-13 05:30N 51°57' E 003°47'0 0.0
2017-Aug-13 05:00N 51°57' E 003°47'0 0.0
2017-Aug-13 04:30N 51°57' E 003°47'0 0.1
2017-Aug-13 04:00N 51°57' E 003°47'0 0.0
2017-Aug-13 03:30N 51°57' E 003°47'0 0.1
2017-Aug-13 03:00N 51°57' E 003°47'0 0.1
2017-Aug-13 02:30N 51°57' E 003°47'0 0.1
2017-Aug-13 02:00N 51°57' E 003°47'0 0.0
2017-Aug-13 01:30N 51°57' E 003°47'0 0.0
2017-Aug-13 01:00N 51°57' E 003°47'0 0.0
2017-Aug-13 00:30N 51°57' E 003°47'0 0.0
2017-Aug-12 23:59N 51°57' E 003°47'0 0.0
2017-Aug-12 23:30N 51°57' E 003°47'0 0.0
2017-Aug-12 23:00N 51°57' E 003°47'0 0.0
2017-Aug-12 22:30N 51°57' E 003°47'0 0.0
2017-Aug-12 22:00N 51°57' E 003°47'0 0.0
2017-Aug-12 21:30N 51°57' E 003°47'0 0.1
2017-Aug-12 21:00N 51°57' E 003°47'0 0.1
2017-Aug-12 20:30N 51°57' E 003°47'0 0.1
2017-Aug-12 20:00N 51°57' E 003°47'0 0.0
2017-Aug-12 19:30N 51°57' E 003°47'0 0.0
2017-Aug-12 19:00N 51°57' E 003°47'0 0.0
2017-Aug-12 18:30N 51°57' E 003°47'0 0.0
2017-Aug-12 18:00N 51°57' E 003°47'0 0.0
2017-Aug-12 17:29N 51°57' E 003°47'0 0.0
2017-Aug-12 17:00N 51°57' E 003°47'0 0.1
2017-Aug-12 16:30N 51°57' E 003°47'0 0.0
2017-Aug-12 16:00N 51°57' E 003°47'0 0.0
2017-Aug-12 15:30N 51°57' E 003°47'0 0.1
2017-Aug-12 15:00N 51°57' E 003°47'0 0.0
2017-Aug-12 14:30N 51°57' E 003°47'0 0.1
2017-Aug-12 14:00N 51°57' E 003°47'0 0.2
2017-Aug-12 13:30N 51°57' E 003°47'0 0.0
2017-Aug-12 13:00N 51°57' E 003°47'0 0.0
2017-Aug-12 12:30N 51°57' E 003°47'0 0.0
2017-Aug-12 12:00N 51°57' E 003°47'0 0.0
2017-Aug-12 11:30N 51°57' E 003°47'0 0.0
2017-Aug-12 11:00N 51°57' E 003°47'0 0.1
2017-Aug-12 10:30N 51°57' E 003°47'0 0.1
2017-Aug-12 10:00N 51°57' E 003°47'0 0.1
2017-Aug-12 09:30N 51°57' E 003°47'0 0.1
2017-Aug-12 09:00N 51°57' E 003°47'0 0.0
2017-Aug-12 08:30N 51°57' E 003°47'0 0.1
2017-Aug-12 08:00N 51°57' E 003°47'0 0.0
2017-Aug-12 07:30N 51°57' E 003°47'0 0.0
2017-Aug-12 07:00N 51°57' E 003°47'0 0.0
2017-Aug-12 06:30N 51°57' E 003°47'0 0.0
2017-Aug-12 06:00N 51°57' E 003°47'0 0.0
2017-Aug-12 05:30N 51°57' E 003°47'0 0.0
2017-Aug-12 05:00N 51°57' E 003°47'0 0.0
2017-Aug-12 04:30N 51°57' E 003°47'0 0.0
2017-Aug-12 03:59N 51°57' E 003°47'0 0.0
2017-Aug-12 03:30N 51°57' E 003°47'0 0.0
2017-Aug-12 03:00N 51°57' E 003°47'0 0.1
2017-Aug-12 02:30N 51°57' E 003°47'0 0.0
2017-Aug-12 02:00N 51°57' E 003°47'0 0.1
2017-Aug-12 01:30N 51°57' E 003°47'0 0.2
2017-Aug-12 01:00N 51°57' E 003°47'0 0.0
2017-Aug-12 00:30N 51°57' E 003°47'0 0.1
2017-Aug-12 00:00N 51°57' E 003°47'0 0.1
2017-Aug-11 23:30N 51°57' E 003°47'0 0.1
2017-Aug-11 23:00N 51°57' E 003°47'  

Dump ship's entire track history